Time;durP1;ratioP1;P1;durP2;ratioP2;P2;SDS_P1;SDS_P2;PMS_P1;PMS_P2;Temp;Humidity;BMP_temperature;BMP_pressure;BME280_temperature;BME280_humidity;BME280_pressure;Samples;Min_cycle;Max_cycle;Signal;HPM_P1;HPM_P2
2021/10/31 00:00:58;;;;;;;39.75;17.02;;;;;;;7.08;61.09;98938.08;2220681;80;21048;-66
2021/10/31 00:04:00;;;;;;;39.80;16.75;;;;;;;7.10;61.29;98943.22;2220387;80;21100;-66
2021/10/31 00:07:01;;;;;;;39.53;16.80;;;;;;;7.17;61.12;98951.16;2220943;80;21076;-66
2021/10/31 00:10:02;;;;;;;38.73;17.30;;;;;;;7.11;61.21;98935.33;2220533;80;21028;-66
2021/10/31 00:13:04;;;;;;;35.33;15.40;;;;;;;7.08;61.55;98939.38;2220502;80;21536;-66
2021/10/31 00:16:05;;;;;;;35.60;14.73;;;;;;;7.01;61.42;98944.48;2220529;80;21040;-66
2021/10/31 00:19:07;;;;;;;40.40;15.55;;;;;;;6.97;61.56;98949.87;2220197;80;21614;-66
2021/10/31 00:25:11;;;;;;;40.03;15.95;;;;;;;6.87;61.20;98967.24;2190006;80;21016;-66
2021/10/31 00:28:13;;;;;;;40.70;17.07;;;;;;;6.66;61.16;98957.28;2220513;80;20985;-66
2021/10/31 00:31:15;;;;;;;37.75;17.12;;;;;;;6.43;61.84;98952.20;2220451;80;21554;-66
2021/10/31 00:34:16;;;;;;;36.45;15.60;;;;;;;6.33;62.12;98953.88;2220734;80;21024;-66
2021/10/31 00:37:18;;;;;;;37.05;15.30;;;;;;;6.34;62.58;98958.66;2220638;80;21099;-66
2021/10/31 00:40:21;;;;;;;33.38;14.63;;;;;;;6.27;62.62;98954.61;2220748;80;21035;-66
2021/10/31 00:43:22;;;;;;;38.05;15.38;;;;;;;6.17;63.24;98952.36;2220377;80;21659;-66
2021/10/31 00:46:24;;;;;;;36.13;16.27;;;;;;;6.04;63.13;98945.50;2220492;80;21040;-66
2021/10/31 00:49:25;;;;;;;37.83;16.62;;;;;;;6.06;63.04;98942.84;2220496;80;21060;-66
2021/10/31 00:52:27;;;;;;;38.58;16.87;;;;;;;5.96;63.75;98940.19;2220869;80;21044;-66
2021/10/31 00:55:28;;;;;;;41.25;18.45;;;;;;;5.90;63.90;98946.48;2220496;80;21056;-66
2021/10/31 00:58:29;;;;;;;39.63;17.17;;;;;;;5.97;64.55;98951.87;2220554;80;21528;-66
2021/10/31 01:01:33;;;;;;;38.60;16.77;;;;;;;6.03;63.95;98959.45;2220509;80;21048;-66
2021/10/31 01:04:34;;;;;;;40.35;16.52;;;;;;;6.00;64.13;98959.55;2220546;80;21008;-66
2021/10/31 01:07:36;;;;;;;38.08;16.42;;;;;;;5.96;64.21;98954.07;2220979;80;21003;-66
2021/10/31 01:10:38;;;;;;;38.95;16.75;;;;;;;5.96;63.95;98955.38;2220761;80;21091;-66
2021/10/31 01:13:39;;;;;;;38.40;16.55;;;;;;;5.92;64.10;98949.02;2220713;80;21044;-66
2021/10/31 01:16:41;;;;;;;37.23;16.80;;;;;;;5.83;64.62;98952.84;2220602;80;21052;-66
2021/10/31 01:19:42;;;;;;;42.60;17.80;;;;;;;5.82;64.50;98960.25;2220846;80;21068;-66
2021/10/31 01:22:44;;;;;;;42.85;19.30;;;;;;;5.88;64.54;98960.03;2220854;80;21072;-66
2021/10/31 01:25:45;;;;;;;38.17;16.55;;;;;;;5.92;64.60;98960.73;2220918;80;21474;-66
2021/10/31 01:28:47;;;;;;;37.95;16.62;;;;;;;5.89;63.98;98972.14;2220870;80;21091;-66
2021/10/31 01:31:48;;;;;;;40.15;17.30;;;;;;;5.58;64.72;98971.19;2220905;80;21511;-66
2021/10/31 01:34:49;;;;;;;39.85;17.75;;;;;;;5.51;64.56;98966.66;2221083;80;20980;-66
2021/10/31 01:37:51;;;;;;;40.08;17.10;;;;;;;5.42;64.89;98965.72;2220944;80;21086;-66
2021/10/31 01:40:52;;;;;;;38.70;17.02;;;;;;;5.41;64.81;98967.45;2220706;80;21048;-66
2021/10/31 01:43:54;;;;;;;35.65;16.20;;;;;;;5.39;65.42;98969.27;2221109;80;21080;-66
2021/10/31 01:46:56;;;;;;;34.20;15.88;;;;;;;5.35;64.97;98975.03;2221152;80;20973;-66
2021/10/31 01:49:57;;;;;;;48.02;20.27;;;;;;;5.29;64.55;98977.03;2220955;80;21078;-66
2021/10/31 01:52:59;;;;;;;42.17;18.73;;;;;;;5.08;64.58;98987.75;2221041;80;21003;-67
2021/10/31 01:56:00;;;;;;;42.93;17.62;;;;;;;4.85;65.61;98982.45;2220853;80;21118;-66
2021/10/31 01:59:01;;;;;;;46.73;20.35;;;;;;;4.90;65.26;98979.71;2220903;80;21554;-66
2021/10/31 02:02:03;;;;;;;53.28;24.92;;;;;;;4.90;65.94;98981.44;2220896;80;21028;-66
2021/10/31 02:05:04;;;;;;;38.58;17.12;;;;;;;4.97;65.99;98977.29;2220654;80;21048;-66
2021/10/31 02:08:06;;;;;;;38.88;16.85;;;;;;;4.95;65.53;98975.64;2221051;80;21003;-66
2021/10/31 02:11:07;;;;;;;39.27;18.42;;;;;;;4.74;66.60;98975.94;2220946;80;21036;-66
2021/10/31 02:14:09;;;;;;;44.05;20.12;;;;;;;4.61;66.59;98976.81;2221141;80;20979;-66
2021/10/31 02:17:10;;;;;;;38.33;17.48;;;;;;;4.55;66.77;98977.02;2220932;80;21118;-66
2021/10/31 02:20:12;;;;;;;39.20;17.17;;;;;;;4.57;66.65;98981.27;2210191;81;21618;-66
2021/10/31 02:23:13;;;;;;;37.45;16.42;;;;;;;4.49;67.05;98973.72;2210135;81;21076;-66
2021/10/31 02:26:15;;;;;;;37.90;16.32;;;;;;;4.43;67.45;98972.64;2210308;81;21482;-66
2021/10/31 02:29:16;;;;;;;36.63;16.32;;;;;;;4.43;67.69;98971.34;2210299;81;20980;-66
2021/10/31 02:32:17;;;;;;;38.75;16.23;;;;;;;4.45;68.22;98976.05;2210382;81;21530;-66
2021/10/31 02:35:19;;;;;;;39.03;17.27;;;;;;;4.51;69.42;98969.34;2210416;81;20988;-66
2021/10/31 02:38:21;;;;;;;37.95;16.27;;;;;;;4.54;68.49;98973.59;2210093;81;21623;-66
2021/10/31 02:41:22;;;;;;;39.18;16.48;;;;;;;4.59;68.30;98974.27;2210421;81;20953;-66
2021/10/31 02:44:24;;;;;;;37.60;16.62;;;;;;;4.66;68.36;98977.05;2210252;81;20995;-66
2021/10/31 02:47:25;;;;;;;38.98;17.27;;;;;;;4.71;68.32;98976.88;2210365;81;20976;-66
2021/10/31 02:50:27;;;;;;;37.75;16.93;;;;;;;4.76;68.26;98976.75;2210152;81;21060;-66
2021/10/31 02:53:28;;;;;;;35.97;16.53;;;;;;;4.81;68.15;98978.28;2210412;81;21024;-66
2021/10/31 02:56:30;;;;;;;38.80;16.32;;;;;;;4.91;68.15;98982.69;2209980;81;21663;-66
2021/10/31 02:59:31;;;;;;;37.48;16.37;;;;;;;4.93;68.05;98990.00;2210460;81;21036;-65
2021/10/31 03:02:32;;;;;;;37.03;17.00;;;;;;;5.03;67.84;98991.83;2210307;81;20981;-66
2021/10/31 03:05:34;;;;;;;38.07;17.27;;;;;;;4.95;68.05;98994.67;2210508;81;21539;-66
2021/10/31 03:08:36;;;;;;;37.48;17.15;;;;;;;4.86;67.39;98988.52;2210447;81;21031;-66
2021/10/31 03:11:37;;;;;;;35.92;15.68;;;;;;;4.73;67.47;99001.55;2210293;81;21055;-65
2021/10/31 03:14:38;;;;;;;39.60;17.00;;;;;;;4.70;68.05;98986.91;2210441;81;20956;-66
2021/10/31 03:17:40;;;;;;;38.80;17.48;;;;;;;4.73;67.97;98993.75;2210881;80;20988;-66
2021/10/31 03:20:41;;;;;;;34.80;15.98;;;;;;;4.71;68.04;98985.98;2220524;80;21119;-66
2021/10/31 03:23:43;;;;;;;35.48;15.43;;;;;;;4.68;67.64;98987.39;2220512;80;21056;-67
2021/10/31 03:26:44;;;;;;;35.73;16.48;;;;;;;4.54;67.66;98990.91;2220585;80;21536;-66
2021/10/31 03:29:46;;;;;;;37.10;16.25;;;;;;;4.44;68.33;98996.42;2220617;80;21080;-66
2021/10/31 03:32:48;;;;;;;43.83;17.00;;;;;;;4.47;68.11;98994.18;2220931;80;21020;-66
2021/10/31 03:35:51;;;;;;;35.37;15.03;;;;;;;4.47;67.60;98998.91;2220825;80;21083;-66
2021/10/31 03:38:52;;;;;;;37.90;16.25;;;;;;;4.30;67.51;98996.03;2220545;80;21036;-66
2021/10/31 03:41:54;;;;;;;36.10;16.02;;;;;;;4.39;67.97;98991.81;2220538;80;21060;-66
2021/10/31 03:44:57;;;;;;;36.68;14.70;;;;;;;4.31;68.62;98997.27;2220673;80;20991;-66
2021/10/31 03:47:59;;;;;;;37.15;16.30;;;;;;;4.30;69.25;98992.97;2220537;80;21096;-66
2021/10/31 03:51:02;;;;;;;32.67;14.83;;;;;;;4.29;69.11;98998.22;2220377;80;21092;-66
2021/10/31 03:54:04;;;;;;;38.10;16.02;;;;;;;4.28;69.49;99004.30;2220772;80;21032;-66
2021/10/31 03:57:05;;;;;;;36.03;15.93;;;;;;;4.32;69.25;99002.01;2220554;80;21017;-66
2021/10/31 04:00:07;;;;;;;37.45;16.05;;;;;;;4.40;69.49;99009.11;2220569;80;21539;-66
2021/10/31 04:03:08;;;;;;;35.80;16.40;;;;;;;4.43;69.17;99012.90;2220589;80;21040;-66
2021/10/31 04:06:12;;;;;;;35.85;15.72;;;;;;;4.37;69.28;99011.81;2220549;80;21060;-66
2021/10/31 04:09:13;;;;;;;40.38;16.25;;;;;;;4.38;69.34;99008.75;2190524;80;21475;-66
2021/10/31 04:12:14;;;;;;;38.05;16.05;;;;;;;4.41;69.37;99013.41;2220885;80;20957;-66
2021/10/31 04:15:16;;;;;;;41.75;17.95;;;;;;;4.34;68.96;99011.91;2220706;80;21103;-66
2021/10/31 04:18:17;;;;;;;42.75;19.85;;;;;;;4.29;69.05;99013.34;2220793;80;21064;-66
2021/10/31 04:21:19;;;;;;;36.68;16.30;;;;;;;4.38;69.52;99016.08;2221136;80;20999;-66
2021/10/31 04:24:21;;;;;;;37.48;16.90;;;;;;;4.43;69.08;99018.09;2221122;80;21024;-67
2021/10/31 04:27:23;;;;;;;41.45;18.55;;;;;;;4.31;69.12;99016.75;2220978;80;21539;-67
2021/10/31 04:30:24;;;;;;;41.50;18.15;;;;;;;4.30;69.43;99016.80;2220976;80;21091;-66
2021/10/31 04:33:26;;;;;;;39.20;16.97;;;;;;;4.25;69.53;99023.45;2220967;80;21028;-66
2021/10/31 04:36:27;;;;;;;41.05;18.45;;;;;;;4.24;69.41;99016.55;2221105;80;21031;-66
2021/10/31 04:39:29;;;;;;;38.77;16.40;;;;;;;4.20;69.52;99016.70;2221331;80;21037;-66
2021/10/31 04:42:32;;;;;;;36.28;16.82;;;;;;;4.15;69.84;99015.53;2220921;80;21578;-66
2021/10/31 04:45:33;;;;;;;36.13;15.95;;;;;;;4.25;69.80;99018.25;2221088;80;21043;-66
2021/10/31 04:48:35;;;;;;;39.53;16.12;;;;;;;4.35;69.86;99017.48;2221107;80;20941;-66
2021/10/31 04:51:36;;;;;;;36.28;15.72;;;;;;;4.34;69.53;99019.24;2220970;80;20979;-66
2021/10/31 04:54:38;;;;;;;36.68;16.30;;;;;;;4.31;69.79;99018.05;2220996;80;21511;-66
2021/10/31 04:57:39;;;;;;;36.85;16.57;;;;;;;4.33;69.78;99008.45;2220992;80;21036;-67
2021/10/31 05:00:40;;;;;;;38.23;16.37;;;;;;;4.30;70.23;99012.45;2220985;80;21570;-66
2021/10/31 05:03:42;;;;;;;36.08;14.85;;;;;;;4.30;69.94;99015.51;2220933;80;20984;-66
2021/10/31 05:06:43;;;;;;;36.53;16.40;;;;;;;4.25;69.53;99012.20;2220979;80;21079;-66
2021/10/31 05:09:45;;;;;;;37.83;16.10;;;;;;;4.23;69.38;99011.41;2221035;80;21036;-66
2021/10/31 05:12:47;;;;;;;36.73;15.78;;;;;;;4.28;69.21;99018.58;2220934;80;21067;-66
2021/10/31 05:15:48;;;;;;;34.40;15.58;;;;;;;4.03;68.44;99024.56;2221079;80;21063;-66
2021/10/31 05:18:50;;;;;;;37.33;16.43;;;;;;;3.81;69.20;99017.44;2220707;80;21100;-66
2021/10/31 05:21:51;;;;;;;39.33;18.65;;;;;;;3.83;69.46;99012.66;2221193;80;21086;-66
2021/10/31 05:24:53;;;;;;;50.15;20.77;;;;;;;3.92;69.99;99012.36;2220794;80;20987;-66
2021/10/31 05:27:54;;;;;;;45.17;18.50;;;;;;;3.80;69.83;99010.53;2220965;80;20976;-66
2021/10/31 05:30:55;;;;;;;39.03;17.12;;;;;;;3.75;70.34;99007.25;2220828;80;20973;-66
2021/10/31 05:33:57;;;;;;;36.38;15.70;;;;;;;3.75;70.40;99005.95;2220799;80;21427;-66
2021/10/31 05:36:59;;;;;;;38.20;15.40;;;;;;;3.77;70.81;99005.44;2220976;80;21007;-66
2021/10/31 05:40:01;;;;;;;37.35;16.70;;;;;;;3.72;70.79;99005.17;2220733;80;21091;-66
2021/10/31 05:43:02;;;;;;;36.98;15.85;;;;;;;3.77;71.02;99011.93;2220877;80;20983;-66
2021/10/31 05:46:04;;;;;;;33.08;14.03;;;;;;;3.90;70.87;99007.22;2220946;80;20988;-66
2021/10/31 05:49:05;;;;;;;35.68;14.55;;;;;;;3.90;71.33;99002.48;2220838;80;20936;-66
2021/10/31 05:52:07;;;;;;;33.35;14.80;;;;;;;3.90;71.70;99002.02;2220798;80;21514;-66
2021/10/31 05:55:08;;;;;;;39.63;16.27;;;;;;;4.00;71.72;99011.68;2220827;80;21008;-66
2021/10/31 05:58:09;;;;;;;36.17;15.60;;;;;;;4.04;70.38;99011.13;2220821;80;20988;-66
2021/10/31 06:01:11;;;;;;;37.98;14.70;;;;;;;3.86;70.44;99027.66;2220924;80;21075;-66
2021/10/31 06:04:12;;;;;;;49.18;20.40;;;;;;;3.89;70.23;99021.54;2220745;80;20964;-66
2021/10/31 06:07:14;;;;;;;47.17;22.73;;;;;;;3.94;70.73;99019.67;2220794;80;21058;-66
2021/10/31 06:10:15;;;;;;;49.55;22.70;;;;;;;4.13;71.24;99015.58;2220798;80;20968;-66
2021/10/31 06:13:17;;;;;;;40.90;18.45;;;;;;;4.33;71.23;99026.63;2220760;80;20999;-66
2021/10/31 06:16:18;;;;;;;33.78;14.70;;;;;;;4.52;70.96;99031.23;2220803;80;21027;-66
2021/10/31 06:19:20;;;;;;;33.23;14.03;;;;;;;4.62;70.86;99030.48;2217012;80;21620;-66
2021/10/31 06:22:21;;;;;;;37.53;16.17;;;;;;;4.69;70.26;99025.47;2210267;81;21095;-66
2021/10/31 06:25:23;;;;;;;34.55;15.90;;;;;;;4.72;70.44;99022.77;2210125;81;21008;-66
2021/10/31 06:28:24;;;;;;;35.10;16.10;;;;;;;4.89;70.70;99025.25;2210042;81;21001;-66
2021/10/31 06:31:25;;;;;;;38.08;19.00;;;;;;;5.08;70.63;99031.48;2210319;81;20987;-66
2021/10/31 06:34:27;;;;;;;36.48;15.88;;;;;;;5.24;70.38;99028.35;2210285;81;21619;-65
2021/10/31 06:37:28;;;;;;;33.73;13.90;;;;;;;5.47;70.32;99032.72;2210397;81;20941;-66
2021/10/31 06:40:30;;;;;;;33.48;13.58;;;;;;;5.65;70.01;99032.50;2210383;81;21468;-66
2021/10/31 06:43:32;;;;;;;35.15;14.47;;;;;;;5.84;69.82;99037.84;2210436;81;21051;-66
2021/10/31 06:46:33;;;;;;;34.05;15.10;;;;;;;6.00;69.53;99041.58;2210374;81;21490;-65
2021/10/31 06:49:38;;;;;;;32.00;13.80;;;;;;;6.20;69.43;99044.70;2210505;81;20988;-66
2021/10/31 06:52:38;;;;;;;29.90;13.38;;;;;;;6.45;69.01;99046.34;2188899;81;21015;-66
2021/10/31 06:55:40;;;;;;;37.23;14.95;;;;;;;6.67;68.60;99046.77;2210513;81;21474;-66
2021/10/31 06:58:41;;;;;;;33.60;14.33;;;;;;;6.85;68.32;99048.61;2210590;81;20992;-66
2021/10/31 07:01:45;;;;;;;34.78;14.03;;;;;;;7.03;68.19;99044.83;2210434;81;22175;-66
2021/10/31 07:04:46;;;;;;;32.67;13.90;;;;;;;7.26;67.93;99051.18;2188665;81;21091;-65
2021/10/31 07:07:48;;;;;;;32.28;14.60;;;;;;;7.60;67.51;99047.52;2210466;81;20957;-66
2021/10/31 07:10:49;;;;;;;32.85;14.50;;;;;;;7.83;67.09;99050.41;2210484;81;21472;-66
2021/10/31 07:13:50;;;;;;;32.78;12.98;;;;;;;8.12;67.03;99059.95;2210434;81;21000;-65
2021/10/31 07:16:52;;;;;;;31.73;13.80;;;;;;;8.38;66.38;99058.70;2210718;81;21480;-65
2021/10/31 07:19:53;;;;;;;33.00;14.78;;;;;;;8.65;65.93;99058.33;2214926;80;21012;-65
2021/10/31 07:22:55;;;;;;;31.42;13.22;;;;;;;8.84;65.65;99060.39;2220683;80;21060;-65
2021/10/31 07:25:57;;;;;;;33.10;14.27;;;;;;;9.13;65.23;99054.61;2221036;80;21547;-66
2021/10/31 07:28:58;;;;;;;34.35;13.40;;;;;;;9.38;64.72;99052.02;2220870;80;21044;-66
2021/10/31 07:32:00;;;;;;;32.30;14.03;;;;;;;9.58;64.58;99045.26;2220881;80;21567;-66
2021/10/31 07:35:01;;;;;;;32.63;13.83;;;;;;;9.84;63.90;99050.42;2220855;80;21048;-66
2021/10/31 07:38:03;;;;;;;31.37;13.28;;;;;;;10.09;63.75;99048.23;2220693;80;21091;-66
2021/10/31 07:41:05;;;;;;;;;;;;;;;10.30;63.04;99049.66;2223371;80;20964;-66
2021/10/31 07:44:06;;;;;;;33.78;13.75;;;;;;;10.52;62.87;99047.16;2220687;80;20399;-65
2021/10/31 07:47:08;;;;;;;31.15;13.18;;;;;;;10.69;62.37;99044.88;2220723;80;20980;-65
2021/10/31 07:50:09;;;;;;;34.43;13.93;;;;;;;10.94;62.36;99044.28;2220726;80;21559;-65
2021/10/31 07:53:11;;;;;;;30.20;12.80;;;;;;;11.14;61.58;99047.03;2221058;80;21075;-65
2021/10/31 07:56:15;;;;;;;29.02;12.20;;;;;;;11.42;61.39;99034.84;2220698;80;20975;-65
2021/10/31 07:59:17;;;;;;;32.50;13.45;;;;;;;11.67;60.58;99032.05;2190357;80;21559;-65
2021/10/31 08:02:18;;;;;;;32.98;13.68;;;;;;;11.77;59.76;99033.98;2220634;80;21064;-66
2021/10/31 08:05:20;;;;;;;31.12;14.28;;;;;;;11.81;59.21;99025.91;2220645;80;21487;-66
2021/10/31 08:08:22;;;;;;;34.43;15.20;;;;;;;11.86;58.79;99031.25;2220694;80;21050;-65
2021/10/31 08:11:24;;;;;;;31.73;13.35;;;;;;;11.91;59.47;99032.27;2220756;80;21044;-65
2021/10/31 08:14:25;;;;;;;30.40;13.43;;;;;;;12.08;59.29;99036.48;2220910;80;21040;-65
2021/10/31 08:17:27;;;;;;;29.43;13.53;;;;;;;12.24;59.16;99033.72;2221057;80;21575;-65
2021/10/31 08:20:29;;;;;;;28.93;13.30;;;;;;;12.45;58.33;99028.38;2220988;80;21050;-65
2021/10/31 08:23:31;;;;;;;30.20;12.68;;;;;;;12.67;57.88;99027.44;2221049;80;21003;-65
2021/10/31 08:26:32;;;;;;;31.53;13.77;;;;;;;12.85;58.11;99024.06;2221003;80;21126;-66
2021/10/31 08:29:34;;;;;;;29.73;13.10;;;;;;;13.04;57.34;99025.80;2221356;80;21695;-66
2021/10/31 08:32:38;;;;;;;30.92;13.55;;;;;;;13.17;56.89;99019.23;2220869;80;21447;-65
2021/10/31 08:35:39;;;;;;;32.35;14.25;;;;;;;13.23;56.84;99019.28;2192809;80;20968;-66
2021/10/31 08:38:40;;;;;;;32.25;13.55;;;;;;;13.32;56.51;99020.81;2221267;80;21483;-66
2021/10/31 08:41:42;;;;;;;30.08;12.25;;;;;;;13.56;56.46;99016.59;2221059;80;21044;-66
2021/10/31 08:44:44;;;;;;;29.45;13.43;;;;;;;13.74;56.12;99015.79;2221222;80;21064;-66
2021/10/31 08:47:46;;;;;;;28.87;12.65;;;;;;;13.95;56.33;99010.30;2220793;80;21547;-66
2021/10/31 08:50:48;;;;;;;29.98;12.20;;;;;;;14.08;55.39;99008.94;2221428;80;21265;-66
2021/10/31 08:53:49;;;;;;;30.63;11.60;;;;;;;14.31;54.84;99001.97;2221019;80;21038;-65
2021/10/31 08:56:50;;;;;;;27.50;11.30;;;;;;;14.53;54.80;99000.38;2221465;80;21040;-66
2021/10/31 08:59:52;;;;;;;26.05;10.50;;;;;;;14.73;54.07;98999.75;2221327;80;20992;-66
2021/10/31 09:02:53;;;;;;;26.33;11.20;;;;;;;14.90;53.21;98996.32;2221281;80;20995;-65
2021/10/31 09:05:55;;;;;;;24.20;9.90;;;;;;;15.04;53.25;98996.56;2221302;80;20972;-66
2021/10/31 09:08:56;;;;;;;24.87;9.78;;;;;;;15.09;51.51;98995.74;2221265;80;21522;-65
2021/10/31 09:11:58;;;;;;;24.73;9.87;;;;;;;15.22;51.97;98995.64;2221269;80;20972;-66
2021/10/31 09:15:00;;;;;;;25.17;10.45;;;;;;;15.34;51.95;98992.05;2221094;80;22144;-65
2021/10/31 09:18:01;;;;;;;28.53;10.37;;;;;;;15.57;52.11;98992.89;2221226;80;21092;-65
2021/10/31 09:21:04;;;;;;;22.95;9.23;;;;;;;15.75;51.18;98983.95;2213649;80;21107;-66
2021/10/31 09:24:07;;;;;;;26.00;10.32;;;;;;;15.79;50.77;98983.73;2210367;80;21019;-65
2021/10/31 09:27:08;;;;;;;;;;;;;;;15.98;49.60;98985.27;2212509;81;21469;-65
2021/10/31 09:30:10;;;;;;;24.25;9.03;;;;;;;16.15;50.22;98978.61;2210218;80;20103;-66
2021/10/31 09:33:12;;;;;;;24.40;9.20;;;;;;;16.25;49.70;98980.03;2210407;81;21590;-65
2021/10/31 09:36:13;;;;;;;24.37;8.85;;;;;;;16.28;49.54;98976.62;2210325;80;21085;-65
2021/10/31 09:39:15;;;;;;;22.37;8.60;;;;;;;16.36;48.47;98977.31;2210466;80;21500;-65
2021/10/31 09:42:17;;;;;;;23.52;8.73;;;;;;;16.42;48.10;98975.96;2210416;81;21284;-65
2021/10/31 09:45:20;;;;;;;25.37;9.15;;;;;;;16.52;48.82;98972.94;2210298;80;21111;-65
2021/10/31 09:48:21;;;;;;;23.80;8.83;;;;;;;16.79;47.92;98970.23;2188637;81;21071;-65
2021/10/31 09:51:23;;;;;;;24.10;8.80;;;;;;;17.00;48.13;98966.79;2210607;81;21032;-65
2021/10/31 09:54:24;;;;;;;24.90;9.60;;;;;;;17.16;47.10;98967.63;2211280;80;20985;-65
2021/10/31 09:57:26;;;;;;;21.33;7.40;;;;;;;17.30;47.17;98965.95;2210652;81;20965;-65
2021/10/31 10:00:27;;;;;;;23.20;8.13;;;;;;;17.41;45.90;98959.70;2210434;80;21072;-65
2021/10/31 10:06:32;;;;;;;22.20;7.87;;;;;;;17.51;45.30;98959.73;2210522;81;21024;-65
2021/10/31 10:09:33;;;;;;;22.65;8.18;;;;;;;17.61;45.38;98949.99;2210656;80;21033;-66
2021/10/31 10:12:35;;;;;;;22.40;8.30;;;;;;;17.70;44.99;98958.48;2210490;80;21031;-66
2021/10/31 10:15:37;;;;;;;22.22;7.62;;;;;;;17.80;44.84;98948.73;2210293;80;21028;-64
2021/10/31 10:18:38;;;;;;;21.55;8.18;;;;;;;17.97;43.89;98942.41;2210467;81;21000;-65
2021/10/31 10:21:40;;;;;;;22.45;7.87;;;;;;;18.10;45.13;98945.66;2210067;80;21575;-65
2021/10/31 10:24:41;;;;;;;22.48;7.33;;;;;;;18.27;43.85;98944.09;2210404;81;21071;-65
2021/10/31 10:27:43;;;;;;;21.87;7.05;;;;;;;18.42;42.61;98943.20;2210493;80;21023;-65
2021/10/31 10:30:44;;;;;;;24.35;8.10;;;;;;;18.43;42.74;98942.70;2209451;81;21004;-65
2021/10/31 10:33:45;;;;;;;21.73;7.58;;;;;;;18.50;42.27;98935.84;2209770;80;20962;-65
2021/10/31 10:36:47;;;;;;;21.33;6.83;;;;;;;18.55;42.33;98932.29;2210113;81;21043;-65
2021/10/31 10:39:48;;;;;;;21.80;7.55;;;;;;;18.60;40.86;98931.86;2210319;80;21004;-65
2021/10/31 10:42:50;;;;;;;19.98;6.10;;;;;;;18.58;39.98;98925.36;2210124;81;21677;-65
2021/10/31 10:45:52;;;;;;;21.25;7.05;;;;;;;18.55;40.82;98930.97;2209224;81;21074;-65
2021/10/31 10:48:54;;;;;;;21.90;7.75;;;;;;;18.56;40.84;98926.01;2209770;81;21516;-65
2021/10/31 10:51:56;;;;;;;21.20;7.00;;;;;;;18.66;40.42;98919.33;2210050;81;21027;-65
2021/10/31 10:54:57;;;;;;;21.85;7.60;;;;;;;18.78;40.97;98912.88;2210443;81;21440;-65
2021/10/31 10:57:59;;;;;;;21.65;7.15;;;;;;;18.85;40.94;98908.66;2210602;80;20973;-65
2021/10/31 11:01:01;;;;;;;24.95;8.60;;;;;;;19.01;41.19;98905.41;2210285;81;21522;-65
2021/10/31 11:04:03;;;;;;;19.35;6.87;;;;;;;19.06;40.97;98903.64;2210409;81;20992;-65
2021/10/31 11:07:04;;;;;;;21.57;7.37;;;;;;;19.20;39.96;98897.84;2210388;81;21459;-65
2021/10/31 11:10:06;;;;;;;20.55;6.72;;;;;;;19.37;40.30;98890.08;2210427;81;20980;-65
2021/10/31 11:13:09;;;;;;;18.35;6.20;;;;;;;19.60;40.43;98896.33;2210320;80;21001;-65
2021/10/31 11:16:10;;;;;;;19.32;6.40;;;;;;;19.75;39.16;98884.16;2210405;81;20949;-65
2021/10/31 11:19:12;;;;;;;20.85;7.05;;;;;;;19.81;39.83;98886.74;2210554;81;21082;-65
2021/10/31 11:22:14;;;;;;;19.57;6.60;;;;;;;19.84;38.31;98882.45;2209993;80;21445;-65
2021/10/31 11:25:15;;;;;;;19.07;6.62;;;;;;;19.78;38.68;98882.52;2210421;80;20972;-65
2021/10/31 11:28:17;;;;;;;20.50;6.70;;;;;;;19.88;38.70;98875.36;2210422;81;21536;-65
2021/10/31 11:31:20;;;;;;;19.95;6.42;;;;;;;20.06;38.95;98870.52;2210370;81;21043;-65
2021/10/31 11:34:22;;;;;;;19.23;6.40;;;;;;;20.08;38.03;98869.38;2210410;81;20968;-65
2021/10/31 11:37:24;;;;;;;20.65;7.10;;;;;;;20.06;37.49;98867.86;2210026;81;21060;-66
2021/10/31 11:40:25;;;;;;;18.35;6.17;;;;;;;20.02;37.93;98868.64;2210519;81;20999;-65
2021/10/31 11:43:27;;;;;;;18.15;6.15;;;;;;;20.09;37.58;98867.55;2210596;81;21035;-65
2021/10/31 11:46:28;;;;;;;18.77;6.28;;;;;;;20.14;37.58;98852.44;2210432;80;21590;-65
2021/10/31 11:49:30;;;;;;;18.05;6.12;;;;;;;20.18;37.01;98853.80;2210406;81;20988;-65
2021/10/31 11:52:31;;;;;;;21.23;6.70;;;;;;;20.18;36.92;98853.80;2210354;81;21475;-65
2021/10/31 11:55:33;;;;;;;19.65;6.37;;;;;;;20.19;36.77;98848.83;2210379;81;21112;-65
2021/10/31 11:58:39;;;;;;;;;;;;;;;20.30;37.33;98851.72;2212948;80;21556;-65
2021/10/31 12:01:38;;;;;;;20.65;5.95;;;;;;;20.40;36.90;98845.80;2188869;81;20129;-65
2021/10/31 12:04:47;;;;;;;20.00;6.55;;;;;;;20.40;36.74;98845.31;2210422;80;21004;-65
2021/10/31 12:07:43;;;;;;;23.42;7.50;;;;;;;20.42;37.67;98846.48;2188502;81;20973;-65
2021/10/31 12:10:45;;;;;;;20.43;7.30;;;;;;;20.48;37.00;98835.20;2210493;80;21028;-65
2021/10/31 12:13:46;;;;;;;23.25;10.45;;;;;;;20.56;37.16;98833.92;2210507;81;21024;-66
2021/10/31 12:16:48;;;;;;;19.90;7.50;;;;;;;20.50;36.75;98834.56;2210518;81;21525;-65
2021/10/31 12:19:52;;;;;;;20.32;7.20;;;;;;;20.42;36.87;98833.17;2210037;81;21007;-66
2021/10/31 12:22:54;;;;;;;19.62;7.00;;;;;;;20.35;36.85;98832.12;2210501;80;21004;-65
2021/10/31 12:25:55;;;;;;;21.35;7.15;;;;;;;20.28;37.02;98826.58;2210520;81;21020;-65
2021/10/31 12:28:57;;;;;;;20.08;6.67;;;;;;;20.24;36.52;98830.53;2210500;80;20949;-65
2021/10/31 12:31:58;;;;;;;21.02;6.58;;;;;;;20.14;36.75;98819.16;2210447;81;21460;-65
2021/10/31 12:34:59;;;;;;;20.37;6.83;;;;;;;20.12;35.46;98818.48;2210165;81;21017;-66
2021/10/31 12:38:01;;;;;;;18.50;6.40;;;;;;;20.01;36.60;98823.06;2210482;81;21483;-66
2021/10/31 12:41:02;;;;;;;21.93;7.58;;;;;;;20.01;36.90;98815.55;2210649;81;21023;-65
2021/10/31 12:44:04;;;;;;;22.58;7.37;;;;;;;20.01;36.78;98815.08;2210462;80;20989;-65
2021/10/31 12:47:05;;;;;;;25.48;7.90;;;;;;;20.04;36.62;98806.78;2210442;81;21452;-65
2021/10/31 12:50:07;;;;;;;20.40;8.00;;;;;;;20.09;36.82;98807.64;2210476;81;20964;-65
2021/10/31 12:53:09;;;;;;;22.13;8.28;;;;;;;20.09;37.00;98803.65;2210473;81;20984;-65
2021/10/31 12:56:10;;;;;;;23.25;8.20;;;;;;;20.10;37.72;98804.47;2210239;81;20949;-66
2021/10/31 12:59:14;;;;;;;23.18;8.48;;;;;;;20.06;37.90;98802.13;2210329;81;21614;-66
2021/10/31 13:02:20;;;;;;;23.15;8.73;;;;;;;20.17;37.97;98786.88;2188807;81;21056;-66
2021/10/31 13:05:18;;;;;;;22.50;8.70;;;;;;;20.17;37.97;98786.88;2188700;81;20968;-66
2021/10/31 13:08:20;;;;;;;24.32;9.83;;;;;;;20.16;37.98;98799.88;2210458;81;20953;-65
2021/10/31 13:11:23;;;;;;;23.40;9.30;;;;;;;20.11;38.30;98796.33;2210256;81;21548;-65
2021/10/31 13:14:25;;;;;;;23.42;9.23;;;;;;;20.14;38.55;98793.86;2210456;80;21012;-66
2021/10/31 13:17:26;;;;;;;23.90;9.13;;;;;;;20.10;38.32;98790.69;2210439;81;21452;-65
2021/10/31 13:20:28;;;;;;;23.05;9.05;;;;;;;20.02;38.09;98791.95;2211491;80;21027;-65
2021/10/31 13:23:29;;;;;;;23.73;9.10;;;;;;;19.84;38.28;98794.15;2221037;80;21028;-66
2021/10/31 13:26:31;;;;;;;21.68;7.97;;;;;;;19.73;38.56;98794.34;2221037;80;21051;-65
2021/10/31 13:29:32;;;;;;;23.50;8.63;;;;;;;19.66;38.89;98791.95;2220846;80;21023;-66
2021/10/31 13:32:34;;;;;;;23.52;8.30;;;;;;;19.54;38.63;98786.04;2221139;80;20984;-66
2021/10/31 13:35:35;;;;;;;23.57;8.88;;;;;;;19.39;38.88;98791.03;2220908;80;21010;-66
2021/10/31 13:38:37;;;;;;;22.50;8.63;;;;;;;19.36;39.13;98786.84;2220556;80;21083;-66
2021/10/31 13:41:38;;;;;;;20.55;7.92;;;;;;;19.30;39.23;98784.80;2220834;80;21019;-66
2021/10/31 13:44:40;;;;;;;23.83;8.75;;;;;;;19.38;39.24;98778.74;2220854;80;21483;-65
2021/10/31 13:47:41;;;;;;;22.82;8.83;;;;;;;19.28;39.16;98771.30;2220822;80;21538;-65
2021/10/31 13:50:43;;;;;;;23.22;8.83;;;;;;;19.15;39.32;98774.32;2220860;80;21289;-65
2021/10/31 13:53:44;;;;;;;23.32;9.30;;;;;;;19.08;39.75;98772.78;2220915;80;21543;-65
2021/10/31 13:56:46;;;;;;;22.00;8.75;;;;;;;19.03;39.67;98776.36;2220843;80;21119;-65
2021/10/31 13:59:47;;;;;;;24.50;8.73;;;;;;;18.95;39.60;98778.45;2220945;80;20949;-65
2021/10/31 14:02:49;;;;;;;21.55;8.10;;;;;;;18.84;39.87;98774.12;2220976;80;21028;-65
2021/10/31 14:05:51;;;;;;;24.35;8.93;;;;;;;18.72;39.84;98772.66;2220685;80;21066;-65
2021/10/31 14:08:52;;;;;;;22.13;8.48;;;;;;;18.68;40.01;98772.60;2220914;80;21020;-65